createdAt,value
2018-12-22T00:01:18.616Z,11.20
2018-12-22T00:03:49.350Z,11.20
2018-12-22T00:06:20.061Z,11.10
2018-12-22T00:08:50.785Z,11.10
2018-12-22T00:11:21.494Z,11.10
2018-12-22T00:13:52.217Z,11.00
2018-12-22T00:16:22.950Z,11.00
2018-12-22T00:18:53.642Z,10.90
2018-12-22T00:21:24.393Z,11.00
2018-12-22T00:23:55.124Z,10.90
2018-12-22T00:26:25.857Z,10.90
2018-12-22T00:28:56.606Z,10.80
2018-12-22T00:31:27.337Z,10.80
2018-12-22T00:33:58.041Z,10.80
2018-12-22T00:36:28.754Z,10.70
2018-12-22T00:38:59.460Z,10.70
2018-12-22T00:41:30.296Z,10.70
2018-12-22T00:44:00.992Z,10.70
2018-12-22T00:46:31.719Z,10.70
2018-12-22T00:49:02.438Z,10.80
2018-12-22T00:51:33.393Z,10.80
2018-12-22T00:54:04.313Z,10.80
2018-12-22T00:56:35.072Z,10.80
2018-12-22T00:59:05.817Z,10.80
2018-12-22T01:01:36.555Z,10.80
2018-12-22T01:04:07.245Z,10.80
2018-12-22T01:06:37.968Z,10.80
2018-12-22T01:09:08.660Z,10.80
2018-12-22T01:11:39.434Z,10.80
2018-12-22T01:14:10.139Z,10.80
2018-12-22T01:16:40.881Z,10.90
2018-12-22T01:19:11.591Z,10.80
2018-12-22T01:21:42.300Z,10.80
2018-12-22T01:24:13.034Z,10.80
2018-12-22T01:26:43.998Z,10.80
2018-12-22T01:29:14.720Z,10.70
2018-12-22T01:31:45.489Z,10.70
2018-12-22T01:34:16.194Z,10.80
2018-12-22T01:36:46.931Z,10.80
2018-12-22T01:39:17.702Z,10.80
2018-12-22T01:41:48.433Z,10.80
2018-12-22T01:44:19.176Z,10.80
2018-12-22T01:46:49.904Z,10.80
2018-12-22T01:49:20.641Z,10.80
2018-12-22T01:51:51.441Z,10.80
2018-12-22T01:54:22.259Z,10.80
2018-12-22T01:56:53.000Z,10.80
2018-12-22T01:59:23.701Z,10.80
2018-12-22T02:01:54.495Z,10.90
2018-12-22T02:04:25.235Z,10.90
2018-12-22T02:06:55.934Z,10.90
2018-12-22T02:09:26.661Z,10.90
2018-12-22T02:11:57.341Z,10.90
2018-12-22T02:14:28.069Z,10.90
2018-12-22T02:16:58.768Z,10.90
2018-12-22T02:19:29.524Z,10.90
2018-12-22T02:22:00.394Z,10.90
2018-12-22T02:24:31.353Z,10.90
2018-12-22T02:27:02.054Z,10.80
2018-12-22T02:29:32.777Z,10.90
2018-12-22T02:32:03.481Z,10.90
2018-12-22T02:34:34.214Z,10.90
2018-12-22T02:37:05.003Z,10.90
2018-12-22T02:39:35.738Z,10.90
2018-12-22T02:42:06.484Z,10.90
2018-12-22T02:44:37.205Z,10.90
2018-12-22T02:47:07.914Z,10.90
2018-12-22T02:49:38.633Z,10.90
2018-12-22T02:52:09.334Z,10.80
2018-12-22T02:54:40.165Z,10.80
2018-12-22T02:57:10.864Z,10.80
2018-12-22T02:59:41.603Z,10.80
2018-12-22T03:02:12.537Z,10.80
2018-12-22T03:04:43.266Z,10.90
2018-12-22T03:07:14.009Z,10.90
2018-12-22T03:09:44.733Z,10.90
2018-12-22T03:12:15.434Z,10.90
2018-12-22T03:14:46.148Z,10.90
2018-12-22T03:17:16.873Z,10.90
2018-12-22T03:19:47.575Z,11.00
2018-12-22T03:22:18.490Z,11.00
2018-12-22T03:24:49.175Z,10.90
2018-12-22T03:27:19.929Z,11.00
2018-12-22T03:29:50.866Z,11.00
2018-12-22T03:32:21.590Z,11.00
2018-12-22T03:34:52.485Z,11.00
2018-12-22T03:37:23.319Z,11.10
2018-12-22T03:39:54.022Z,11.10
2018-12-22T03:42:24.732Z,11.10
2018-12-22T03:44:55.437Z,11.10
2018-12-22T03:47:26.169Z,11.20
2018-12-22T03:49:56.874Z,11.20
2018-12-22T03:52:27.591Z,11.20
2018-12-22T03:54:58.289Z,11.20
2018-12-22T03:57:29.006Z,11.20
2018-12-22T03:59:59.684Z,11.10
2018-12-22T04:02:30.477Z,11.10
2018-12-22T04:05:01.176Z,11.00
2018-12-22T04:07:32.129Z,11.00
2018-12-22T04:10:02.951Z,11.10
2018-12-22T04:12:33.665Z,11.00
2018-12-22T04:15:04.434Z,11.10
2018-12-22T04:17:35.132Z,11.10
2018-12-22T04:20:06.799Z,11.10
2018-12-22T04:22:37.880Z,11.00
2018-12-22T04:25:08.606Z,11.10
2018-12-22T04:27:39.317Z,11.10
2018-12-22T04:30:09.981Z,11.10
2018-12-22T04:32:40.683Z,11.20
2018-12-22T04:35:11.808Z,11.20
2018-12-22T04:37:42.515Z,11.20
2018-12-22T04:40:13.193Z,11.20
2018-12-22T04:42:43.979Z,11.20
2018-12-22T04:45:14.911Z,11.10
2018-12-22T04:47:45.630Z,11.20
2018-12-22T04:50:16.554Z,11.20
2018-12-22T04:52:47.277Z,11.20
2018-12-22T04:55:17.973Z,11.20
2018-12-22T04:57:48.915Z,11.30
2018-12-22T05:00:19.623Z,11.40
2018-12-22T05:02:50.304Z,11.40
2018-12-22T05:05:21.346Z,11.40
2018-12-22T05:07:52.022Z,11.50
2018-12-22T05:10:22.830Z,11.50
2018-12-22T05:12:53.546Z,11.50
2018-12-22T05:15:24.262Z,11.50
2018-12-22T05:17:54.962Z,11.50
2018-12-22T05:20:25.679Z,11.50
2018-12-22T05:22:56.399Z,11.60
2018-12-22T05:25:27.112Z,11.60
2018-12-22T05:27:57.796Z,11.70
2018-12-22T05:30:28.516Z,11.70
2018-12-22T05:32:59.190Z,11.70
2018-12-22T05:35:29.895Z,11.60
2018-12-22T05:38:00.577Z,11.70
2018-12-22T05:40:31.532Z,11.60
2018-12-22T05:43:02.242Z,11.60
2018-12-22T05:45:32.964Z,11.70
2018-12-22T05:48:03.665Z,11.70
2018-12-22T05:50:34.381Z,11.70
2018-12-22T05:53:05.110Z,11.60
2018-12-22T05:55:35.824Z,11.60
2018-12-22T05:58:06.624Z,11.60
2018-12-22T06:00:37.330Z,11.50
2018-12-22T06:03:08.018Z,11.50
2018-12-22T06:05:38.717Z,11.50
2018-12-22T06:08:09.410Z,11.50
2018-12-22T06:10:40.128Z,11.40
2018-12-22T06:13:10.839Z,11.40
2018-12-22T06:15:41.584Z,11.40
2018-12-22T06:18:12.277Z,11.40
2018-12-22T06:20:42.986Z,11.40
2018-12-22T06:23:13.671Z,11.40
2018-12-22T06:25:44.393Z,11.40
2018-12-22T06:28:15.076Z,11.40
2018-12-22T06:30:45.787Z,11.40
2018-12-22T06:33:16.466Z,11.40
2018-12-22T06:35:47.184Z,11.40
2018-12-22T06:38:18.006Z,11.40
2018-12-22T06:40:48.717Z,11.40
2018-12-22T06:43:19.422Z,11.40
2018-12-22T06:45:50.131Z,11.40
2018-12-22T06:48:20.813Z,11.40
2018-12-22T06:50:51.513Z,11.40
2018-12-22T06:53:22.197Z,11.40
2018-12-22T06:55:52.909Z,11.40
2018-12-22T06:58:23.610Z,11.40
2018-12-22T07:00:54.293Z,11.40
2018-12-22T07:03:25.044Z,11.40
2018-12-22T07:05:56.064Z,11.30
2018-12-22T07:08:26.907Z,11.30
2018-12-22T07:10:57.578Z,11.20
2018-12-22T07:13:28.304Z,11.00
2018-12-22T07:15:59.025Z,10.80
2018-12-22T07:18:29.725Z,10.60
2018-12-22T07:21:00.395Z,10.40
2018-12-22T07:23:31.098Z,10.30
2018-12-22T07:26:01.784Z,10.10
2018-12-22T07:28:32.489Z,10.10
2018-12-22T07:31:03.174Z,10.00
2018-12-22T07:33:33.856Z,9.90
2018-12-22T07:36:04.569Z,9.90
2018-12-22T07:38:35.373Z,9.80
2018-12-22T07:41:06.049Z,9.70
2018-12-22T07:43:36.772Z,9.70
2018-12-22T07:46:07.447Z,9.70
2018-12-22T07:48:38.174Z,9.60
2018-12-22T07:51:08.958Z,9.70
2018-12-22T07:53:39.679Z,9.70
2018-12-22T07:56:10.373Z,9.70
2018-12-22T07:58:41.085Z,9.70
2018-12-22T08:01:11.749Z,9.70
2018-12-22T08:03:42.465Z,9.70
2018-12-22T08:06:13.154Z,9.80
2018-12-22T08:08:43.864Z,9.80
2018-12-22T08:11:14.554Z,9.80
2018-12-22T08:13:45.258Z,9.80
2018-12-22T08:16:15.924Z,9.80
2018-12-22T08:18:46.660Z,9.80
2018-12-22T08:21:17.605Z,9.90
2018-12-22T08:23:48.296Z,9.80
2018-12-22T08:26:18.985Z,9.90
2018-12-22T08:28:49.918Z,9.80
2018-12-22T08:31:20.646Z,9.80
2018-12-22T08:33:51.348Z,9.80
2018-12-22T08:36:22.198Z,9.80
2018-12-22T08:38:52.892Z,9.80
2018-12-22T08:41:23.581Z,9.80
2018-12-22T08:43:54.272Z,9.80
2018-12-22T08:46:24.957Z,9.80
2018-12-22T08:48:55.662Z,9.80
2018-12-22T08:51:26.329Z,9.80
2018-12-22T08:53:57.045Z,9.80
2018-12-22T08:56:27.729Z,9.90
2018-12-22T08:58:58.662Z,9.90
2018-12-22T09:01:30.254Z,9.90
2018-12-22T09:04:00.970Z,10.00
2018-12-22T09:06:31.885Z,10.00
2018-12-22T09:09:02.589Z,10.00
2018-12-22T09:11:33.265Z,9.90
2018-12-22T09:14:04.032Z,10.00
2018-12-22T09:16:34.979Z,10.00
2018-12-22T09:19:05.958Z,10.00
2018-12-22T09:21:36.704Z,10.00
2018-12-22T09:24:07.390Z,10.00
2018-12-22T09:26:38.102Z,10.00
2018-12-22T09:29:08.802Z,10.00
2018-12-22T09:31:39.505Z,10.00
2018-12-22T09:34:13.410Z,9.90
2018-12-22T09:36:42.897Z,10.00
2018-12-22T09:39:13.579Z,9.90
2018-12-22T09:41:44.344Z,9.90
2018-12-22T09:44:15.033Z,9.90
2018-12-22T09:46:45.818Z,9.80
2018-12-22T09:49:16.511Z,9.80
2018-12-22T09:51:47.217Z,9.80
2018-12-22T09:54:17.898Z,9.80
2018-12-22T09:56:48.650Z,9.80
2018-12-22T09:59:19.334Z,9.80
2018-12-22T10:01:50.038Z,9.80
2018-12-22T10:04:20.718Z,9.80
2018-12-22T10:06:51.433Z,9.80
2018-12-22T10:09:22.121Z,9.80
2018-12-22T10:11:52.850Z,9.80
2018-12-22T10:14:23.621Z,9.90
2018-12-22T10:16:54.384Z,9.90
2018-12-22T10:19:25.069Z,9.90
2018-12-22T10:21:55.783Z,9.90
2018-12-22T10:24:26.466Z,9.90
2018-12-22T10:26:57.308Z,9.90
2018-12-22T10:29:27.990Z,9.90
2018-12-22T10:31:58.702Z,9.90
2018-12-22T10:34:29.382Z,9.80
2018-12-22T10:37:00.097Z,9.80
2018-12-22T10:39:30.775Z,9.80
2018-12-22T10:42:01.478Z,9.80
2018-12-22T10:44:32.494Z,9.80
2018-12-22T10:47:03.682Z,9.80
2018-12-22T10:49:34.367Z,9.80
2018-12-22T10:52:05.085Z,9.80
2018-12-22T10:54:35.765Z,9.80
2018-12-22T10:57:06.562Z,9.80
2018-12-22T10:59:37.259Z,9.90
2018-12-22T11:02:07.981Z,9.90
2018-12-22T11:04:38.673Z,9.90
2018-12-22T11:07:09.630Z,10.00
2018-12-22T11:09:40.314Z,10.00
2018-12-22T11:12:11.050Z,10.00
2018-12-22T11:14:43.551Z,10.00
2018-12-22T11:17:14.260Z,10.00
2018-12-22T11:19:44.981Z,10.00
2018-12-22T11:22:15.684Z,10.00
2018-12-22T11:24:46.409Z,10.00
2018-12-22T11:27:17.133Z,10.00
2018-12-22T11:29:47.837Z,10.00
2018-12-22T11:32:18.614Z,10.10
2018-12-22T11:34:49.578Z,10.10
2018-12-22T11:37:20.577Z,10.10
2018-12-22T11:39:51.293Z,10.20
2018-12-22T11:42:23.348Z,10.20
2018-12-22T11:44:54.389Z,10.30
2018-12-22T11:47:28.330Z,10.30
2018-12-22T11:49:59.248Z,10.30
2018-12-22T11:52:29.957Z,10.30
2018-12-22T11:55:00.649Z,10.30
2018-12-22T11:57:31.381Z,10.30
2018-12-22T12:00:02.113Z,10.30
2018-12-22T12:02:32.975Z,10.30
2018-12-22T12:05:04.509Z,10.40
2018-12-22T12:07:35.210Z,10.40
2018-12-22T12:10:08.814Z,10.40
2018-12-22T12:12:39.805Z,10.40
2018-12-22T12:15:14.744Z,10.40
2018-12-22T12:17:50.435Z,10.50
2018-12-22T12:20:21.117Z,10.50
2018-12-22T12:22:51.820Z,10.50
2018-12-22T12:25:22.513Z,10.50
2018-12-22T12:27:53.229Z,10.60
2018-12-22T12:30:23.945Z,10.50
2018-12-22T12:32:54.648Z,10.50
2018-12-22T12:35:25.447Z,10.50
2018-12-22T12:37:56.280Z,10.50
2018-12-22T12:40:27.218Z,10.60
2018-12-22T12:42:57.910Z,10.60
2018-12-22T12:45:28.618Z,10.70
2018-12-22T12:47:59.389Z,10.60
2018-12-22T12:50:30.173Z,10.70
2018-12-22T12:53:09.441Z,10.70
2018-12-22T12:55:33.536Z,10.70
2018-12-22T12:58:04.266Z,10.70
2018-12-22T13:00:35.375Z,10.80
2018-12-22T13:03:08.257Z,10.80
2018-12-22T13:05:38.793Z,10.80
2018-12-22T13:08:09.525Z,10.80
2018-12-22T13:10:40.238Z,10.80
2018-12-22T13:13:18.730Z,10.80
2018-12-22T13:15:49.672Z,10.80
2018-12-22T13:18:20.459Z,10.80
2018-12-22T13:20:51.250Z,10.90
2018-12-22T13:23:21.950Z,10.90
2018-12-22T13:25:52.714Z,11.00
2018-12-22T13:28:23.445Z,11.10
2018-12-22T13:30:54.241Z,11.10
2018-12-22T13:33:25.425Z,11.10
2018-12-22T13:35:56.385Z,11.20
2018-12-22T13:38:27.134Z,11.30
2018-12-22T13:40:57.818Z,11.30
2018-12-22T13:43:28.536Z,11.30
2018-12-22T13:45:59.255Z,11.30
2018-12-22T13:48:30.215Z,11.30
2018-12-22T13:51:01.447Z,11.30
2018-12-22T13:53:32.356Z,11.30
2018-12-22T13:56:03.125Z,11.30
2018-12-22T13:58:33.808Z,11.30
2018-12-22T14:01:04.827Z,11.30
2018-12-22T14:03:35.669Z,11.30
2018-12-22T14:06:07.584Z,11.30
2018-12-22T14:08:38.288Z,11.30
2018-12-22T14:11:09.106Z,11.30
2018-12-22T14:13:39.793Z,11.20
2018-12-22T14:16:11.199Z,11.20
2018-12-22T14:18:42.975Z,11.20
2018-12-22T14:21:13.909Z,11.30
2018-12-22T14:24:01.086Z,11.20
2018-12-22T14:26:31.797Z,11.20
2018-12-22T14:29:02.557Z,11.10
2018-12-22T14:31:33.282Z,11.10
2018-12-22T14:34:09.796Z,11.00
2018-12-22T14:36:40.513Z,11.00
2018-12-22T14:39:11.248Z,11.00
2018-12-22T14:41:41.956Z,10.90
2018-12-22T14:44:12.636Z,10.90
2018-12-22T14:46:43.370Z,10.90
2018-12-22T14:49:14.080Z,10.90
2018-12-22T14:51:44.765Z,10.80
2018-12-22T14:54:15.492Z,10.80
2018-12-22T14:56:46.269Z,10.80
2018-12-22T14:59:16.994Z,10.70
2018-12-22T15:01:47.720Z,10.70
2018-12-22T15:04:18.434Z,10.60
2018-12-22T15:06:49.214Z,10.60
2018-12-22T15:09:19.969Z,10.60
2018-12-22T15:11:50.900Z,10.50
2018-12-22T15:14:21.857Z,10.50
2018-12-22T15:16:52.546Z,10.50
2018-12-22T15:19:23.285Z,10.50
2018-12-22T15:21:54.281Z,10.60
2018-12-22T15:24:25.006Z,10.50
2018-12-22T15:26:55.711Z,10.40
2018-12-22T15:29:26.418Z,10.40
2018-12-22T15:31:57.159Z,10.30
2018-12-22T15:34:27.878Z,10.30
2018-12-22T15:36:58.614Z,10.20
2018-12-22T15:39:29.331Z,10.20
2018-12-22T15:42:00.030Z,10.20
2018-12-22T15:44:30.844Z,10.10
2018-12-22T15:47:01.873Z,10.10
2018-12-22T15:49:32.836Z,10.10
2018-12-22T15:52:03.536Z,10.10
2018-12-22T15:54:34.268Z,10.10
2018-12-22T15:57:05.005Z,10.00
2018-12-22T15:59:35.856Z,10.00
2018-12-22T16:02:06.552Z,9.90
2018-12-22T16:04:37.280Z,9.90
2018-12-22T16:07:07.976Z,9.90
2018-12-22T16:09:38.723Z,9.90
2018-12-22T16:12:09.415Z,9.80
2018-12-22T16:14:40.308Z,9.80
2018-12-22T16:17:10.996Z,9.70
2018-12-22T16:19:41.725Z,9.70
2018-12-22T16:22:12.469Z,9.70
2018-12-22T16:24:43.236Z,9.70
2018-12-22T16:27:14.274Z,9.60
2018-12-22T16:29:44.971Z,9.60
2018-12-22T16:32:15.693Z,9.60
2018-12-22T16:34:46.385Z,9.60
2018-12-22T16:37:17.105Z,9.60
2018-12-22T16:39:47.843Z,9.60
2018-12-22T16:42:18.798Z,9.60
2018-12-22T16:44:49.576Z,9.60
2018-12-22T16:47:20.496Z,9.60
2018-12-22T16:49:51.196Z,9.60
2018-12-22T16:52:21.930Z,9.50
2018-12-22T16:54:52.837Z,9.50
2018-12-22T16:57:23.564Z,9.50
2018-12-22T16:59:54.304Z,9.50
2018-12-22T17:02:25.077Z,9.40
2018-12-22T17:04:55.785Z,9.40
2018-12-22T17:07:26.505Z,9.40
2018-12-22T17:09:57.206Z,9.30
2018-12-22T17:12:27.929Z,9.30
2018-12-22T17:14:58.639Z,9.30
2018-12-22T17:17:29.361Z,9.30
2018-12-22T17:20:00.263Z,9.40
2018-12-22T17:22:31.509Z,9.30
2018-12-22T17:25:02.712Z,9.30
2018-12-22T17:27:33.493Z,9.30
2018-12-22T17:30:05.366Z,9.30
2018-12-22T17:32:36.088Z,9.30
2018-12-22T17:35:10.342Z,9.30
2018-12-22T17:37:41.073Z,9.30
2018-12-22T17:40:11.827Z,9.30
2018-12-22T17:42:42.657Z,9.40
2018-12-22T17:45:13.359Z,9.40
2018-12-22T17:47:44.074Z,9.30
2018-12-22T17:50:14.789Z,9.30
2018-12-22T17:52:45.518Z,9.30
2018-12-22T17:55:18.174Z,9.30
2018-12-22T17:57:49.290Z,9.30
2018-12-22T18:00:20.449Z,9.30
2018-12-22T18:02:51.464Z,9.30
2018-12-22T18:05:22.234Z,9.40
2018-12-22T18:07:52.925Z,9.30
2018-12-22T18:10:23.794Z,9.30
2018-12-22T18:12:54.734Z,9.30
2018-12-22T18:15:26.205Z,9.30
2018-12-22T18:17:56.969Z,9.30
2018-12-22T18:20:27.670Z,9.20
2018-12-22T18:22:58.406Z,9.20
2018-12-22T18:25:29.135Z,9.20
2018-12-22T18:27:59.851Z,9.20
2018-12-22T18:30:30.541Z,9.20
2018-12-22T18:33:01.257Z,9.20
2018-12-22T18:35:32.189Z,9.20
2018-12-22T18:38:02.962Z,9.20
2018-12-22T18:40:33.652Z,9.20
2018-12-22T18:43:04.417Z,9.20
2018-12-22T18:45:35.149Z,9.10
2018-12-22T18:48:05.880Z,9.10
2018-12-22T18:50:36.565Z,9.10
2018-12-22T18:53:07.530Z,9.00
2018-12-22T18:55:38.258Z,9.00
2018-12-22T18:58:09.160Z,9.00
2018-12-22T19:00:40.104Z,9.00
2018-12-22T19:03:11.049Z,8.90
2018-12-22T19:05:41.747Z,8.90
2018-12-22T19:08:12.472Z,8.90
2018-12-22T19:10:43.196Z,8.90
2018-12-22T19:13:13.916Z,8.80
2018-12-22T19:15:44.633Z,8.80
2018-12-22T19:18:15.364Z,8.80
2018-12-22T19:20:46.168Z,8.70
2018-12-22T19:23:16.884Z,8.70
2018-12-22T19:25:47.812Z,8.70
2018-12-22T19:28:18.693Z,8.70
2018-12-22T19:30:49.381Z,8.60
2018-12-22T19:33:20.117Z,8.60
2018-12-22T19:35:50.803Z,8.60
2018-12-22T19:38:21.636Z,8.60
2018-12-22T19:40:52.335Z,8.60
2018-12-22T19:43:23.059Z,8.60
2018-12-22T19:45:53.776Z,8.60
2018-12-22T19:48:24.469Z,8.70
2018-12-22T19:50:55.185Z,8.60
2018-12-22T19:53:25.881Z,8.60
2018-12-22T19:55:56.592Z,8.60
2018-12-22T19:58:27.297Z,8.60
2018-12-22T20:00:58.017Z,8.60
2018-12-22T20:03:29.114Z,8.60
2018-12-22T20:05:59.853Z,8.60
2018-12-22T20:08:30.542Z,8.60
2018-12-22T20:11:01.264Z,8.60
2018-12-22T20:13:31.954Z,8.60
2018-12-22T20:16:08.830Z,8.60
2018-12-22T20:18:35.368Z,8.60
2018-12-22T20:21:06.099Z,8.60
2018-12-22T20:23:36.798Z,8.60
2018-12-22T20:26:07.570Z,8.60
2018-12-22T20:28:39.792Z,8.60
2018-12-22T20:35:09.761Z,8.60
2018-12-22T20:37:40.489Z,8.60
2018-12-22T20:40:11.872Z,8.50
2018-12-22T20:42:43.125Z,8.50
2018-12-22T20:45:14.003Z,8.40
2018-12-22T20:47:44.735Z,8.40
2018-12-22T20:50:15.617Z,8.40
2018-12-22T20:52:46.321Z,8.40
2018-12-22T20:55:17.841Z,8.30
2018-12-22T20:57:48.797Z,8.30
2018-12-22T21:00:19.504Z,8.20
2018-12-22T21:02:50.253Z,8.20
2018-12-22T21:05:22.298Z,8.20
2018-12-22T21:07:53.024Z,8.20
2018-12-22T21:10:23.720Z,8.20
2018-12-22T21:12:54.690Z,8.10
2018-12-22T21:15:25.391Z,8.10
2018-12-22T21:17:56.116Z,8.10
2018-12-22T21:20:26.806Z,8.10
2018-12-22T21:22:57.548Z,8.00
2018-12-22T21:25:28.243Z,8.00
2018-12-22T21:27:58.974Z,8.00
2018-12-22T21:30:29.664Z,8.00
2018-12-22T21:33:00.561Z,8.00
2018-12-22T21:35:31.249Z,8.00
2018-12-22T21:38:01.974Z,8.00
2018-12-22T21:40:32.661Z,8.00
2018-12-22T21:43:03.380Z,8.00
2018-12-22T21:45:34.889Z,8.00
2018-12-22T21:48:05.882Z,7.90
2018-12-22T21:50:37.597Z,7.90
2018-12-22T21:53:08.305Z,7.90
2018-12-22T21:55:39.022Z,7.90
2018-12-22T21:58:09.767Z,7.90
2018-12-22T22:00:40.446Z,7.90
2018-12-22T22:03:11.206Z,7.90
2018-12-22T22:05:41.895Z,7.90
2018-12-22T22:08:12.945Z,7.90
2018-12-22T22:10:43.653Z,7.90
2018-12-22T22:13:14.364Z,7.90
2018-12-22T22:15:45.141Z,8.00
2018-12-22T22:18:15.866Z,8.00
2018-12-22T22:20:46.590Z,8.00
2018-12-22T22:23:19.106Z,8.00
2018-12-22T22:25:52.171Z,8.00
2018-12-22T22:28:22.801Z,8.00
2018-12-22T22:30:53.569Z,8.10
2018-12-22T22:33:24.461Z,8.10
2018-12-22T22:35:56.288Z,8.20
2018-12-22T22:38:27.012Z,8.20
2018-12-22T22:40:57.713Z,8.30
2018-12-22T22:43:28.421Z,8.30
2018-12-22T22:45:59.197Z,8.30
2018-12-22T22:48:29.914Z,8.30
2018-12-22T22:51:00.625Z,8.30
2018-12-22T22:53:31.443Z,8.40
2018-12-22T22:56:02.129Z,8.40
2018-12-22T22:58:32.853Z,8.40
2018-12-22T23:01:03.657Z,8.50
2018-12-22T23:03:34.378Z,8.50
2018-12-22T23:06:05.268Z,8.50
2018-12-22T23:08:35.943Z,8.50
2018-12-22T23:11:06.684Z,8.50
2018-12-22T23:13:37.407Z,8.50
2018-12-22T23:16:08.139Z,8.40
2018-12-22T23:18:39.059Z,8.40
2018-12-22T23:21:09.770Z,8.40
2018-12-22T23:23:40.506Z,8.40
2018-12-22T23:26:11.221Z,8.40
2018-12-22T23:28:42.179Z,8.40
2018-12-22T23:31:12.965Z,8.40
2018-12-22T23:33:43.698Z,8.40
2018-12-22T23:36:14.410Z,8.30
2018-12-22T23:38:45.143Z,8.30
2018-12-22T23:41:16.077Z,8.30
2018-12-22T23:43:49.821Z,8.30
2018-12-22T23:46:20.750Z,8.30
2018-12-22T23:48:51.477Z,8.30
2018-12-22T23:51:22.254Z,8.30
2018-12-22T23:53:52.981Z,8.30
2018-12-22T23:56:23.693Z,8.20
2018-12-22T23:58:54.414Z,8.20
